sensor_id;sensor_type;location;lat;lon;timestamp;temperature;humidity
69281;SHT31;56392;51.082;17.080;2023-12-20T00:03:39;7.07;87.23
69281;SHT31;56392;51.082;17.080;2023-12-20T00:09:04;7.07;87.05
69281;SHT31;56392;51.082;17.080;2023-12-20T00:14:27;7.12;87.07
69281;SHT31;56392;51.082;17.080;2023-12-20T00:19:52;7.09;86.93
69281;SHT31;56392;51.082;17.080;2023-12-20T00:25:15;7.08;86.93
69281;SHT31;56392;51.082;17.080;2023-12-20T00:30:38;7.11;87.13
69281;SHT31;56392;51.082;17.080;2023-12-20T00:36:04;7.07;87.25
69281;SHT31;56392;51.082;17.080;2023-12-20T00:41:27;7.08;87.34
69281;SHT31;56392;51.082;17.080;2023-12-20T00:46:50;7.00;87.43
69281;SHT31;56392;51.082;17.080;2023-12-20T00:52:15;6.95;87.89
69281;SHT31;56392;51.082;17.080;2023-12-20T00:57:39;6.94;88.21
69281;SHT31;56392;51.082;17.080;2023-12-20T01:03:02;6.90;88.34
69281;SHT31;56392;51.082;17.080;2023-12-20T01:08:27;6.90;88.52
69281;SHT31;56392;51.082;17.080;2023-12-20T01:13:50;6.91;88.68
69281;SHT31;56392;51.082;17.080;2023-12-20T01:19:13;6.92;88.65
69281;SHT31;56392;51.082;17.080;2023-12-20T01:24:37;6.92;88.74
69281;SHT31;56392;51.082;17.080;2023-12-20T01:30:00;6.85;89.17
69281;SHT31;56392;51.082;17.080;2023-12-20T01:35:24;6.84;89.39
69281;SHT31;56392;51.082;17.080;2023-12-20T01:40:48;6.80;89.58
69281;SHT31;56392;51.082;17.080;2023-12-20T01:46:12;6.79;89.80
69281;SHT31;56392;51.082;17.080;2023-12-20T01:51:35;6.79;89.92
69281;SHT31;56392;51.082;17.080;2023-12-20T01:57:01;6.76;90.01
69281;SHT31;56392;51.082;17.080;2023-12-20T02:02:26;6.76;90.01
69281;SHT31;56392;51.082;17.080;2023-12-20T02:07:50;6.73;90.17
69281;SHT31;56392;51.082;17.080;2023-12-20T02:13:14;6.80;90.15
69281;SHT31;56392;51.082;17.080;2023-12-20T02:18:37;6.79;90.22
69281;SHT31;56392;51.082;17.080;2023-12-20T02:24:02;6.79;90.28
69281;SHT31;56392;51.082;17.080;2023-12-20T02:29:25;6.81;90.31
69281;SHT31;56392;51.082;17.080;2023-12-20T02:34:48;6.83;90.26
69281;SHT31;56392;51.082;17.080;2023-12-20T02:40:13;6.83;90.38
69281;SHT31;56392;51.082;17.080;2023-12-20T02:45:36;6.79;90.49
69281;SHT31;56392;51.082;17.080;2023-12-20T02:50:59;6.77;90.47
69281;SHT31;56392;51.082;17.080;2023-12-20T02:56:23;6.71;90.57
69281;SHT31;56392;51.082;17.080;2023-12-20T03:01:47;6.69;90.68
69281;SHT31;56392;51.082;17.080;2023-12-20T03:07:10;6.60;90.96
69281;SHT31;56392;51.082;17.080;2023-12-20T03:12:35;6.53;90.86
69281;SHT31;56392;51.082;17.080;2023-12-20T03:17:58;6.50;90.42
69281;SHT31;56392;51.082;17.080;2023-12-20T03:23:21;6.49;90.24
69281;SHT31;56392;51.082;17.080;2023-12-20T03:28:46;6.49;90.20
69281;SHT31;56392;51.082;17.080;2023-12-20T03:34:10;6.46;90.63
69281;SHT31;56392;51.082;17.080;2023-12-20T03:39:33;6.36;90.85
69281;SHT31;56392;51.082;17.080;2023-12-20T03:44:58;6.37;91.36
69281;SHT31;56392;51.082;17.080;2023-12-20T03:50:21;6.30;91.44
69281;SHT31;56392;51.082;17.080;2023-12-20T03:55:44;6.18;91.62
69281;SHT31;56392;51.082;17.080;2023-12-20T04:01:10;6.12;91.83
69281;SHT31;56392;51.082;17.080;2023-12-20T04:06:34;6.09;92.34
69281;SHT31;56392;51.082;17.080;2023-12-20T04:11:57;6.05;92.75
69281;SHT31;56392;51.082;17.080;2023-12-20T04:17:22;6.01;92.79
69281;SHT31;56392;51.082;17.080;2023-12-20T04:22:45;6.01;93.19
69281;SHT31;56392;51.082;17.080;2023-12-20T04:28:08;5.99;93.26
69281;SHT31;56392;51.082;17.080;2023-12-20T04:33:32;5.99;93.26
69281;SHT31;56392;51.082;17.080;2023-12-20T04:38:55;5.92;92.95
69281;SHT31;56392;51.082;17.080;2023-12-20T04:44:18;5.91;92.96
69281;SHT31;56392;51.082;17.080;2023-12-20T04:49:44;5.85;93.09
69281;SHT31;56392;51.082;17.080;2023-12-20T04:55:07;5.84;93.18
69281;SHT31;56392;51.082;17.080;2023-12-20T05:00:30;5.79;93.11
69281;SHT31;56392;51.082;17.080;2023-12-20T05:05:55;5.75;92.99
69281;SHT31;56392;51.082;17.080;2023-12-20T05:11:18;5.74;93.07
69281;SHT31;56392;51.082;17.080;2023-12-20T05:16:41;5.70;93.33
69281;SHT31;56392;51.082;17.080;2023-12-20T05:22:05;5.72;93.20
69281;SHT31;56392;51.082;17.080;2023-12-20T05:27:29;5.72;93.38
69281;SHT31;56392;51.082;17.080;2023-12-20T05:32:52;5.70;93.58
69281;SHT31;56392;51.082;17.080;2023-12-20T05:38:16;5.72;93.61
69281;SHT31;56392;51.082;17.080;2023-12-20T05:43:39;5.77;93.80
69281;SHT31;56392;51.082;17.080;2023-12-20T05:49:02;5.72;93.84
69281;SHT31;56392;51.082;17.080;2023-12-20T05:54:31;5.79;93.81
69281;SHT31;56392;51.082;17.080;2023-12-20T05:59:54;5.81;93.77
69281;SHT31;56392;51.082;17.080;2023-12-20T06:05:18;5.82;93.95
69281;SHT31;56392;51.082;17.080;2023-12-20T06:10:42;5.88;93.84
69281;SHT31;56392;51.082;17.080;2023-12-20T06:16:06;5.82;93.72
69281;SHT31;56392;51.082;17.080;2023-12-20T06:21:31;5.82;93.71
69281;SHT31;56392;51.082;17.080;2023-12-20T06:26:55;5.78;93.38
69281;SHT31;56392;51.082;17.080;2023-12-20T06:32:18;5.77;93.13
69281;SHT31;56392;51.082;17.080;2023-12-20T06:37:41;5.77;93.16
69281;SHT31;56392;51.082;17.080;2023-12-20T06:43:06;5.74;92.99
69281;SHT31;56392;51.082;17.080;2023-12-20T06:48:29;5.74;92.63
69281;SHT31;56392;51.082;17.080;2023-12-20T06:53:53;5.77;92.60
69281;SHT31;56392;51.082;17.080;2023-12-20T06:59:18;5.71;92.77
69281;SHT31;56392;51.082;17.080;2023-12-20T07:04:41;5.75;92.91
69281;SHT31;56392;51.082;17.080;2023-12-20T07:10:05;5.72;92.80
69281;SHT31;56392;51.082;17.080;2023-12-20T07:15:31;5.74;92.70
69281;SHT31;56392;51.082;17.080;2023-12-20T07:20:55;5.70;92.19
69281;SHT31;56392;51.082;17.080;2023-12-20T07:26:19;5.75;92.21
69281;SHT31;56392;51.082;17.080;2023-12-20T07:31:44;5.75;92.26
69281;SHT31;56392;51.082;17.080;2023-12-20T07:37:07;5.79;92.28
69281;SHT31;56392;51.082;17.080;2023-12-20T07:42:31;5.82;92.12
69281;SHT31;56392;51.082;17.080;2023-12-20T07:47:56;5.75;91.91
69281;SHT31;56392;51.082;17.080;2023-12-20T07:53:19;5.77;91.79
69281;SHT31;56392;51.082;17.080;2023-12-20T07:58:43;5.79;91.80
69281;SHT31;56392;51.082;17.080;2023-12-20T08:04:08;5.75;91.71
69281;SHT31;56392;51.082;17.080;2023-12-20T08:09:34;5.78;91.48
69281;SHT31;56392;51.082;17.080;2023-12-20T08:14:58;5.78;91.51
69281;SHT31;56392;51.082;17.080;2023-12-20T08:20:24;5.79;91.19
69281;SHT31;56392;51.082;17.080;2023-12-20T08:25:47;5.82;90.76
69281;SHT31;56392;51.082;17.080;2023-12-20T08:31:14;5.87;90.59
69281;SHT31;56392;51.082;17.080;2023-12-20T08:36:39;5.94;90.71
69281;SHT31;56392;51.082;17.080;2023-12-20T08:42:03;5.98;90.45
69281;SHT31;56392;51.082;17.080;2023-12-20T08:47:27;6.03;90.11
69281;SHT31;56392;51.082;17.080;2023-12-20T08:52:52;6.09;89.92
69281;SHT31;56392;51.082;17.080;2023-12-20T08:58:15;6.08;89.61
69281;SHT31;56392;51.082;17.080;2023-12-20T09:03:39;6.02;89.74
69281;SHT31;56392;51.082;17.080;2023-12-20T09:09:03;6.05;89.70
69281;SHT31;56392;51.082;17.080;2023-12-20T09:14:29;6.13;89.40
69281;SHT31;56392;51.082;17.080;2023-12-20T09:19:52;6.16;89.15
69281;SHT31;56392;51.082;17.080;2023-12-20T09:25:17;6.13;89.25
69281;SHT31;56392;51.082;17.080;2023-12-20T09:30:40;6.16;88.65
69281;SHT31;56392;51.082;17.080;2023-12-20T09:36:04;6.15;88.53
69281;SHT31;56392;51.082;17.080;2023-12-20T09:41:31;6.33;88.34
69281;SHT31;56392;51.082;17.080;2023-12-20T09:46:56;6.44;87.87
69281;SHT31;56392;51.082;17.080;2023-12-20T09:52:20;6.61;87.52
69281;SHT31;56392;51.082;17.080;2023-12-20T09:57:46;6.79;87.24
69281;SHT31;56392;51.082;17.080;2023-12-20T10:03:11;6.83;86.55
69281;SHT31;56392;51.082;17.080;2023-12-20T10:08:35;6.85;86.36
69281;SHT31;56392;51.082;17.080;2023-12-20T10:14:00;6.95;85.65
69281;SHT31;56392;51.082;17.080;2023-12-20T10:19:24;6.92;84.78
69281;SHT31;56392;51.082;17.080;2023-12-20T10:24:48;6.92;84.30
69281;SHT31;56392;51.082;17.080;2023-12-20T10:30:13;6.88;83.39
69281;SHT31;56392;51.082;17.080;2023-12-20T10:35:38;6.77;83.67
69281;SHT31;56392;51.082;17.080;2023-12-20T10:41:03;6.60;83.85
69281;SHT31;56392;51.082;17.080;2023-12-20T10:46:31;6.63;83.92
69281;SHT31;56392;51.082;17.080;2023-12-20T10:51:54;6.46;83.34
69281;SHT31;56392;51.082;17.080;2023-12-20T10:57:19;6.30;83.76
69281;SHT31;56392;51.082;17.080;2023-12-20T11:02:44;6.42;83.62
69281;SHT31;56392;51.082;17.080;2023-12-20T11:08:09;7.08;83.40
69281;SHT31;56392;51.082;17.080;2023-12-20T11:13:36;7.62;81.87
69281;SHT31;56392;51.082;17.080;2023-12-20T11:19:06;7.70;80.19
69281;SHT31;56392;51.082;17.080;2023-12-20T11:24:31;7.77;79.76
69281;SHT31;56392;51.082;17.080;2023-12-20T11:29:57;7.73;79.70
69281;SHT31;56392;51.082;17.080;2023-12-20T11:35:24;8.48;79.15
69281;SHT31;56392;51.082;17.080;2023-12-20T11:40:48;8.93;76.67
69281;SHT31;56392;51.082;17.080;2023-12-20T11:46:12;8.90;75.32
69281;SHT31;56392;51.082;17.080;2023-12-20T11:51:40;8.95;74.33
69281;SHT31;56392;51.082;17.080;2023-12-20T11:57:05;8.87;74.24
69281;SHT31;56392;51.082;17.080;2023-12-20T12:02:28;8.83;74.80
69281;SHT31;56392;51.082;17.080;2023-12-20T12:07:53;8.90;73.43
69281;SHT31;56392;51.082;17.080;2023-12-20T12:13:16;8.65;74.10
69281;SHT31;56392;51.082;17.080;2023-12-20T12:18:39;8.45;74.04
69281;SHT31;56392;51.082;17.080;2023-12-20T12:24:09;8.18;73.82
69281;SHT31;56392;51.082;17.080;2023-12-20T12:29:34;8.04;73.77
69281;SHT31;56392;51.082;17.080;2023-12-20T12:34:58;8.03;74.16
69281;SHT31;56392;51.082;17.080;2023-12-20T12:40:23;7.86;74.53
69281;SHT31;56392;51.082;17.080;2023-12-20T12:45:46;7.77;75.22
69281;SHT31;56392;51.082;17.080;2023-12-20T12:51:09;7.67;74.47
69281;SHT31;56392;51.082;17.080;2023-12-20T12:56:36;7.62;75.08
69281;SHT31;56392;51.082;17.080;2023-12-20T13:02:00;7.61;74.87
69281;SHT31;56392;51.082;17.080;2023-12-20T13:07:25;7.63;73.66
69281;SHT31;56392;51.082;17.080;2023-12-20T13:12:49;7.61;73.87
69281;SHT31;56392;51.082;17.080;2023-12-20T13:18:13;7.32;74.89
69281;SHT31;56392;51.082;17.080;2023-12-20T13:23:36;7.09;75.97
69281;SHT31;56392;51.082;17.080;2023-12-20T13:29:00;7.12;75.34
69281;SHT31;56392;51.082;17.080;2023-12-20T13:34:23;7.23;75.30
69281;SHT31;56392;51.082;17.080;2023-12-20T13:39:46;7.28;75.02
69281;SHT31;56392;51.082;17.080;2023-12-20T13:45:11;7.26;75.10
69281;SHT31;56392;51.082;17.080;2023-12-20T13:50:34;7.29;74.68
69281;SHT31;56392;51.082;17.080;2023-12-20T13:55:57;7.35;74.20
69281;SHT31;56392;51.082;17.080;2023-12-20T14:01:23;7.32;74.63
69281;SHT31;56392;51.082;17.080;2023-12-20T14:06:46;7.31;75.06
69281;SHT31;56392;51.082;17.080;2023-12-20T14:12:09;7.25;73.65
69281;SHT31;56392;51.082;17.080;2023-12-20T14:17:33;7.28;73.99
69281;SHT31;56392;51.082;17.080;2023-12-20T14:22:56;7.23;73.72
69281;SHT31;56392;51.082;17.080;2023-12-20T14:28:19;7.21;73.54
69281;SHT31;56392;51.082;17.080;2023-12-20T14:33:44;7.16;73.46
69281;SHT31;56392;51.082;17.080;2023-12-20T14:39:07;7.12;73.55
69281;SHT31;56392;51.082;17.080;2023-12-20T14:44:34;7.11;73.37
69281;SHT31;56392;51.082;17.080;2023-12-20T14:49:59;7.09;73.19
69281;SHT31;56392;51.082;17.080;2023-12-20T14:55:22;7.11;72.33
69281;SHT31;56392;51.082;17.080;2023-12-20T15:00:45;7.09;72.29
69281;SHT31;56392;51.082;17.080;2023-12-20T15:06:09;6.98;72.31
69281;SHT31;56392;51.082;17.080;2023-12-20T15:11:33;6.92;72.28
69281;SHT31;56392;51.082;17.080;2023-12-20T15:16:57;6.97;71.71
69281;SHT31;56392;51.082;17.080;2023-12-20T15:22:21;7.02;71.79
69281;SHT31;56392;51.082;17.080;2023-12-20T15:27:45;6.97;71.28
69281;SHT31;56392;51.082;17.080;2023-12-20T15:33:10;6.92;71.40
69281;SHT31;56392;51.082;17.080;2023-12-20T15:38:35;6.90;71.44
69281;SHT31;56392;51.082;17.080;2023-12-20T15:43:58;6.67;71.22
69281;SHT31;56392;51.082;17.080;2023-12-20T15:49:21;6.57;71.76
69281;SHT31;56392;51.082;17.080;2023-12-20T15:54:45;6.61;72.30
69281;SHT31;56392;51.082;17.080;2023-12-20T16:00:10;6.60;72.60
69281;SHT31;56392;51.082;17.080;2023-12-20T16:05:33;6.63;73.21
69281;SHT31;56392;51.082;17.080;2023-12-20T16:10:58;6.60;72.84
69281;SHT31;56392;51.082;17.080;2023-12-20T16:16:21;6.57;72.86
69281;SHT31;56392;51.082;17.080;2023-12-20T16:21:44;6.56;72.65
69281;SHT31;56392;51.082;17.080;2023-12-20T16:27:08;6.58;72.57
69281;SHT31;56392;51.082;17.080;2023-12-20T16:32:32;6.63;72.31
69281;SHT31;56392;51.082;17.080;2023-12-20T16:37:55;6.67;72.08
69281;SHT31;56392;51.082;17.080;2023-12-20T16:43:20;6.64;72.29
69281;SHT31;56392;51.082;17.080;2023-12-20T16:48:44;6.63;72.56
69281;SHT31;56392;51.082;17.080;2023-12-20T16:54:07;6.67;72.02
69281;SHT31;56392;51.082;17.080;2023-12-20T16:59:32;6.63;73.08
69281;SHT31;56392;51.082;17.080;2023-12-20T17:04:56;6.63;72.97
69281;SHT31;56392;51.082;17.080;2023-12-20T17:10:19;6.61;72.94
69281;SHT31;56392;51.082;17.080;2023-12-20T17:15:44;6.66;72.85
69281;SHT31;56392;51.082;17.080;2023-12-20T17:21:07;6.67;72.72
69281;SHT31;56392;51.082;17.080;2023-12-20T17:26:30;6.46;72.84
69281;SHT31;56392;51.082;17.080;2023-12-20T17:31:55;6.50;72.18
69281;SHT31;56392;51.082;17.080;2023-12-20T17:37:18;6.54;71.96
69281;SHT31;56392;51.082;17.080;2023-12-20T17:42:44;6.56;71.83
69281;SHT31;56392;51.082;17.080;2023-12-20T17:48:08;6.58;71.70
69281;SHT31;56392;51.082;17.080;2023-12-20T17:53:31;6.58;71.57
69281;SHT31;56392;51.082;17.080;2023-12-20T17:58:54;6.61;71.96
69281;SHT31;56392;51.082;17.080;2023-12-20T18:04:20;6.69;71.98
69281;SHT31;56392;51.082;17.080;2023-12-20T18:09:44;6.58;72.02
69281;SHT31;56392;51.082;17.080;2023-12-20T18:15:08;6.50;72.18
69281;SHT31;56392;51.082;17.080;2023-12-20T18:20:35;6.47;71.98
69281;SHT31;56392;51.082;17.080;2023-12-20T18:25:59;6.44;72.08
69281;SHT31;56392;51.082;17.080;2023-12-20T18:31:22;6.40;72.03
69281;SHT31;56392;51.082;17.080;2023-12-20T18:36:47;6.37;72.51
69281;SHT31;56392;51.082;17.080;2023-12-20T18:42:10;6.32;72.43
69281;SHT31;56392;51.082;17.080;2023-12-20T18:47:34;6.25;72.96
69281;SHT31;56392;51.082;17.080;2023-12-20T18:52:59;6.22;73.17
69281;SHT31;56392;51.082;17.080;2023-12-20T18:58:23;6.18;73.45
69281;SHT31;56392;51.082;17.080;2023-12-20T19:03:53;6.16;74.28
69281;SHT31;56392;51.082;17.080;2023-12-20T19:09:18;6.22;74.56
69281;SHT31;56392;51.082;17.080;2023-12-20T19:14:41;6.15;75.32
69281;SHT31;56392;51.082;17.080;2023-12-20T19:20:06;6.01;76.30
69281;SHT31;56392;51.082;17.080;2023-12-20T19:25:31;5.84;76.61
69281;SHT31;56392;51.082;17.080;2023-12-20T19:30:56;5.70;77.45
69281;SHT31;56392;51.082;17.080;2023-12-20T19:36:23;5.61;77.80
69281;SHT31;56392;51.082;17.080;2023-12-20T19:41:48;5.52;78.48
69281;SHT31;56392;51.082;17.080;2023-12-20T19:47:11;5.44;78.87
69281;SHT31;56392;51.082;17.080;2023-12-20T19:52:36;5.41;79.24
69281;SHT31;56392;51.082;17.080;2023-12-20T19:58:04;5.40;79.58
69281;SHT31;56392;51.082;17.080;2023-12-20T20:03:27;5.36;79.69
69281;SHT31;56392;51.082;17.080;2023-12-20T20:08:51;5.40;79.91
69281;SHT31;56392;51.082;17.080;2023-12-20T20:14:20;5.36;80.08
69281;SHT31;56392;51.082;17.080;2023-12-20T20:19:45;5.36;80.03
69281;SHT31;56392;51.082;17.080;2023-12-20T20:25:10;5.51;79.56
69281;SHT31;56392;51.082;17.080;2023-12-20T20:30:37;5.67;78.94
69281;SHT31;56392;51.082;17.080;2023-12-20T20:36:08;5.68;79.03
69281;SHT31;56392;51.082;17.080;2023-12-20T20:41:33;5.72;79.14
69281;SHT31;56392;51.082;17.080;2023-12-20T20:46:57;5.74;79.27
69281;SHT31;56392;51.082;17.080;2023-12-20T20:52:20;5.82;80.32
69281;SHT31;56392;51.082;17.080;2023-12-20T20:57:45;5.77;81.25
69281;SHT31;56392;51.082;17.080;2023-12-20T21:03:12;5.77;82.64
69281;SHT31;56392;51.082;17.080;2023-12-20T21:08:36;5.62;83.07
69281;SHT31;56392;51.082;17.080;2023-12-20T21:13:59;5.55;83.62
69281;SHT31;56392;51.082;17.080;2023-12-20T21:19:23;5.57;83.60
69281;SHT31;56392;51.082;17.080;2023-12-20T21:24:46;5.58;83.65
69281;SHT31;56392;51.082;17.080;2023-12-20T21:30:11;5.57;83.83
69281;SHT31;56392;51.082;17.080;2023-12-20T21:35:36;5.64;83.79
69281;SHT31;56392;51.082;17.080;2023-12-20T21:41:00;5.65;83.55
69281;SHT31;56392;51.082;17.080;2023-12-20T21:46:24;5.71;83.24
69281;SHT31;56392;51.082;17.080;2023-12-20T21:51:49;5.71;82.84
69281;SHT31;56392;51.082;17.080;2023-12-20T21:57:12;5.81;81.99
69281;SHT31;56392;51.082;17.080;2023-12-20T22:02:36;5.85;81.44
69281;SHT31;56392;51.082;17.080;2023-12-20T22:08:01;5.94;80.78
69281;SHT31;56392;51.082;17.080;2023-12-20T22:13:25;5.95;80.53
69281;SHT31;56392;51.082;17.080;2023-12-20T22:18:52;5.94;80.81
69281;SHT31;56392;51.082;17.080;2023-12-20T22:24:16;5.92;80.56
69281;SHT31;56392;51.082;17.080;2023-12-20T22:29:41;5.89;80.77
69281;SHT31;56392;51.082;17.080;2023-12-20T22:35:09;5.91;80.13
69281;SHT31;56392;51.082;17.080;2023-12-20T22:40:36;5.97;79.33
69281;SHT31;56392;51.082;17.080;2023-12-20T22:45:59;5.99;78.92
69281;SHT31;56392;51.082;17.080;2023-12-20T22:51:24;6.01;78.38
69281;SHT31;56392;51.082;17.080;2023-12-20T22:56:50;5.91;79.42
69281;SHT31;56392;51.082;17.080;2023-12-20T23:02:15;5.81;80.98
69281;SHT31;56392;51.082;17.080;2023-12-20T23:07:39;5.75;81.88
69281;SHT31;56392;51.082;17.080;2023-12-20T23:13:04;5.67;81.87
69281;SHT31;56392;51.082;17.080;2023-12-20T23:18:27;5.65;82.12
69281;SHT31;56392;51.082;17.080;2023-12-20T23:23:50;5.61;82.30
69281;SHT31;56392;51.082;17.080;2023-12-20T23:29:15;5.60;83.19
69281;SHT31;56392;51.082;17.080;2023-12-20T23:34:40;5.51;84.14
69281;SHT31;56392;51.082;17.080;2023-12-20T23:40:04;5.46;83.89
69281;SHT31;56392;51.082;17.080;2023-12-20T23:45:28;5.50;84.20
69281;SHT31;56392;51.082;17.080;2023-12-20T23:50:51;5.43;85.12
69281;SHT31;56392;51.082;17.080;2023-12-20T23:56:15;5.36;85.32
